sensor_id;sensor_type;location;lat;lon;timestamp;P1;durP1;ratioP1;P2;durP2;ratioP2
37411;SDS011;23278;52.110;6.050;2022-08-04T00:04:59;2.08;;;0.60;;
37411;SDS011;23278;52.110;6.050;2022-08-04T00:09:55;2.13;;;0.50;;
37411;SDS011;23278;52.110;6.050;2022-08-04T00:12:30;1.47;;;0.70;;
37411;SDS011;23278;52.110;6.050;2022-08-04T00:15:00;1.75;;;0.50;;
37411;SDS011;23278;52.110;6.050;2022-08-04T00:17:30;1.88;;;0.60;;
37411;SDS011;23278;52.110;6.050;2022-08-04T00:20:03;2.10;;;1.17;;
37411;SDS011;23278;52.110;6.050;2022-08-04T00:22:31;3.47;;;1.05;;
37411;SDS011;23278;52.110;6.050;2022-08-04T00:25:03;1.58;;;0.57;;
37411;SDS011;23278;52.110;6.050;2022-08-04T00:27:29;2.65;;;1.10;;
37411;SDS011;23278;52.110;6.050;2022-08-04T00:29:56;2.45;;;0.50;;
37411;SDS011;23278;52.110;6.050;2022-08-04T00:32:24;4.15;;;0.70;;
37411;SDS011;23278;52.110;6.050;2022-08-04T00:34:51;2.08;;;0.70;;
37411;SDS011;23278;52.110;6.050;2022-08-04T00:37:21;2.95;;;0.60;;
37411;SDS011;23278;52.110;6.050;2022-08-04T00:39:48;2.30;;;0.73;;
37411;SDS011;23278;52.110;6.050;2022-08-04T00:50:03;1.20;;;0.73;;
37411;SDS011;23278;52.110;6.050;2022-08-04T01:04:15;1.17;;;0.57;;
37411;SDS011;23278;52.110;6.050;2022-08-04T01:09:52;0.98;;;0.60;;
37411;SDS011;23278;52.110;6.050;2022-08-04T01:12:51;1.83;;;0.57;;
37411;SDS011;23278;52.110;6.050;2022-08-04T01:15:39;0.93;;;0.70;;
37411;SDS011;23278;52.110;6.050;2022-08-04T01:18:13;2.28;;;0.70;;
37411;SDS011;23278;52.110;6.050;2022-08-04T01:21:00;1.00;;;0.60;;
37411;SDS011;23278;52.110;6.050;2022-08-04T01:26:43;1.17;;;0.57;;
37411;SDS011;23278;52.110;6.050;2022-08-04T01:29:37;1.88;;;0.80;;
37411;SDS011;23278;52.110;6.050;2022-08-04T01:34:51;1.83;;;0.80;;
37411;SDS011;23278;52.110;6.050;2022-08-04T01:37:31;1.23;;;0.70;;
37411;SDS011;23278;52.110;6.050;2022-08-04T01:40:04;1.67;;;0.60;;
37411;SDS011;23278;52.110;6.050;2022-08-04T01:42:31;1.20;;;0.50;;
37411;SDS011;23278;52.110;6.050;2022-08-04T01:45:06;5.28;;;0.68;;
37411;SDS011;23278;52.110;6.050;2022-08-04T01:47:37;1.17;;;0.70;;
37411;SDS011;23278;52.110;6.050;2022-08-04T01:50:07;2.10;;;0.70;;
37411;SDS011;23278;52.110;6.050;2022-08-04T01:52:38;3.95;;;0.70;;
37411;SDS011;23278;52.110;6.050;2022-08-04T01:55:07;1.90;;;0.80;;
37411;SDS011;23278;52.110;6.050;2022-08-04T01:57:41;1.30;;;0.68;;
37411;SDS011;23278;52.110;6.050;2022-08-04T02:00:21;1.15;;;0.55;;
37411;SDS011;23278;52.110;6.050;2022-08-04T02:02:51;1.60;;;0.70;;
37411;SDS011;23278;52.110;6.050;2022-08-04T02:05:20;1.30;;;0.70;;
37411;SDS011;23278;52.110;6.050;2022-08-04T02:10:29;2.60;;;0.80;;
37411;SDS011;23278;52.110;6.050;2022-08-04T02:16:03;1.23;;;0.70;;
37411;SDS011;23278;52.110;6.050;2022-08-04T02:18:39;1.60;;;0.70;;
37411;SDS011;23278;52.110;6.050;2022-08-04T02:21:24;1.00;;;0.80;;
37411;SDS011;23278;52.110;6.050;2022-08-04T02:23:53;1.08;;;0.60;;
37411;SDS011;23278;52.110;6.050;2022-08-04T02:26:27;2.00;;;0.65;;
37411;SDS011;23278;52.110;6.050;2022-08-04T02:31:38;1.25;;;0.80;;
37411;SDS011;23278;52.110;6.050;2022-08-04T02:36:39;4.13;;;0.57;;
37411;SDS011;23278;52.110;6.050;2022-08-04T02:39:06;2.55;;;0.90;;
37411;SDS011;23278;52.110;6.050;2022-08-04T02:41:37;1.48;;;0.70;;
37411;SDS011;23278;52.110;6.050;2022-08-04T02:44:06;1.02;;;0.52;;
37411;SDS011;23278;52.110;6.050;2022-08-04T02:46:34;2.22;;;0.80;;
37411;SDS011;23278;52.110;6.050;2022-08-04T02:49:03;2.28;;;0.90;;
37411;SDS011;23278;52.110;6.050;2022-08-04T02:51:34;1.25;;;0.70;;
37411;SDS011;23278;52.110;6.050;2022-08-04T02:54:03;1.25;;;0.70;;
37411;SDS011;23278;52.110;6.050;2022-08-04T02:56:31;4.82;;;0.90;;
37411;SDS011;23278;52.110;6.050;2022-08-04T02:59:03;3.83;;;1.30;;
37411;SDS011;23278;52.110;6.050;2022-08-04T03:01:32;2.17;;;0.80;;
37411;SDS011;23278;52.110;6.050;2022-08-04T03:04:05;1.60;;;0.65;;
37411;SDS011;23278;52.110;6.050;2022-08-04T03:29:35;0.90;;;0.70;;
37411;SDS011;23278;52.110;6.050;2022-08-04T03:49:22;1.95;;;0.85;;
37411;SDS011;23278;52.110;6.050;2022-08-04T03:58:20;4.35;;;0.70;;
37411;SDS011;23278;52.110;6.050;2022-08-04T04:06:23;1.40;;;0.60;;
37411;SDS011;23278;52.110;6.050;2022-08-04T04:09:19;3.15;;;0.85;;
37411;SDS011;23278;52.110;6.050;2022-08-04T04:21:03;4.53;;;0.98;;
37411;SDS011;23278;52.110;6.050;2022-08-04T04:23:51;5.43;;;1.40;;
37411;SDS011;23278;52.110;6.050;2022-08-04T04:32:06;1.92;;;0.95;;
37411;SDS011;23278;52.110;6.050;2022-08-04T04:34:55;7.45;;;1.60;;
37411;SDS011;23278;52.110;6.050;2022-08-04T04:45:41;3.85;;;0.80;;
37411;SDS011;23278;52.110;6.050;2022-08-04T04:57:19;6.65;;;1.45;;
37411;SDS011;23278;52.110;6.050;2022-08-04T05:00:05;1.23;;;0.90;;
37411;SDS011;23278;52.110;6.050;2022-08-04T05:02:56;1.85;;;0.80;;
37411;SDS011;23278;52.110;6.050;2022-08-04T05:05:26;3.05;;;0.60;;
37411;SDS011;23278;52.110;6.050;2022-08-04T05:08:20;1.65;;;0.80;;
37411;SDS011;23278;52.110;6.050;2022-08-04T05:13:43;3.70;;;0.82;;
37411;SDS011;23278;52.110;6.050;2022-08-04T05:18:48;4.05;;;1.00;;
37411;SDS011;23278;52.110;6.050;2022-08-04T05:21:32;3.72;;;1.15;;
37411;SDS011;23278;52.110;6.050;2022-08-04T05:24:12;4.72;;;1.45;;
37411;SDS011;23278;52.110;6.050;2022-08-04T05:26:46;5.30;;;0.95;;
37411;SDS011;23278;52.110;6.050;2022-08-04T05:29:25;4.20;;;1.08;;
37411;SDS011;23278;52.110;6.050;2022-08-04T05:31:55;3.90;;;1.10;;
37411;SDS011;23278;52.110;6.050;2022-08-04T05:34:28;3.63;;;1.00;;
37411;SDS011;23278;52.110;6.050;2022-08-04T05:36:59;4.28;;;0.98;;
37411;SDS011;23278;52.110;6.050;2022-08-04T05:39:35;3.40;;;1.08;;
37411;SDS011;23278;52.110;6.050;2022-08-04T05:42:07;1.90;;;0.90;;
37411;SDS011;23278;52.110;6.050;2022-08-04T05:44:35;2.78;;;0.80;;
37411;SDS011;23278;52.110;6.050;2022-08-04T05:47:02;1.88;;;0.73;;
37411;SDS011;23278;52.110;6.050;2022-08-04T05:49:29;2.28;;;0.70;;
37411;SDS011;23278;52.110;6.050;2022-08-04T05:51:58;3.63;;;1.00;;
37411;SDS011;23278;52.110;6.050;2022-08-04T05:54:25;3.30;;;0.90;;
37411;SDS011;23278;52.110;6.050;2022-08-04T05:56:55;3.28;;;0.50;;
37411;SDS011;23278;52.110;6.050;2022-08-04T05:59:22;1.13;;;0.70;;
37411;SDS011;23278;52.110;6.050;2022-08-04T06:01:50;1.80;;;0.70;;
37411;SDS011;23278;52.110;6.050;2022-08-04T06:04:19;3.05;;;0.70;;
37411;SDS011;23278;52.110;6.050;2022-08-04T06:06:47;1.65;;;0.60;;
37411;SDS011;23278;52.110;6.050;2022-08-04T06:09:14;1.80;;;0.50;;
37411;SDS011;23278;52.110;6.050;2022-08-04T06:11:40;2.15;;;0.73;;
37411;SDS011;23278;52.110;6.050;2022-08-04T06:14:09;2.40;;;0.55;;
37411;SDS011;23278;52.110;6.050;2022-08-04T06:16:39;3.95;;;0.50;;
37411;SDS011;23278;52.110;6.050;2022-08-04T06:19:08;3.55;;;0.68;;
37411;SDS011;23278;52.110;6.050;2022-08-04T06:21:39;1.88;;;0.75;;
37411;SDS011;23278;52.110;6.050;2022-08-04T06:24:10;1.48;;;0.63;;
37411;SDS011;23278;52.110;6.050;2022-08-04T06:26:39;2.70;;;0.65;;
37411;SDS011;23278;52.110;6.050;2022-08-04T06:29:06;1.63;;;0.73;;
37411;SDS011;23278;52.110;6.050;2022-08-04T06:31:41;2.97;;;0.60;;
37411;SDS011;23278;52.110;6.050;2022-08-04T06:34:12;1.77;;;0.73;;
37411;SDS011;23278;52.110;6.050;2022-08-04T06:36:40;4.35;;;0.75;;
37411;SDS011;23278;52.110;6.050;2022-08-04T06:39:08;1.98;;;0.93;;
37411;SDS011;23278;52.110;6.050;2022-08-04T06:41:35;5.25;;;1.00;;
37411;SDS011;23278;52.110;6.050;2022-08-04T06:44:03;2.47;;;0.93;;
37411;SDS011;23278;52.110;6.050;2022-08-04T06:46:36;1.20;;;0.50;;
37411;SDS011;23278;52.110;6.050;2022-08-04T06:49:04;1.30;;;0.60;;
37411;SDS011;23278;52.110;6.050;2022-08-04T06:51:31;1.45;;;0.50;;
37411;SDS011;23278;52.110;6.050;2022-08-04T06:54:03;2.42;;;1.02;;
37411;SDS011;23278;52.110;6.050;2022-08-04T06:56:30;1.20;;;0.63;;
37411;SDS011;23278;52.110;6.050;2022-08-04T06:58:58;2.25;;;0.70;;
37411;SDS011;23278;52.110;6.050;2022-08-04T07:01:26;1.13;;;0.70;;
37411;SDS011;23278;52.110;6.050;2022-08-04T07:03:53;1.88;;;0.68;;
37411;SDS011;23278;52.110;6.050;2022-08-04T07:06:22;3.22;;;0.60;;
37411;SDS011;23278;52.110;6.050;2022-08-04T07:08:50;1.65;;;0.50;;
37411;SDS011;23278;52.110;6.050;2022-08-04T07:11:18;2.63;;;0.82;;
37411;SDS011;23278;52.110;6.050;2022-08-04T07:13:45;2.85;;;0.80;;
37411;SDS011;23278;52.110;6.050;2022-08-04T07:16:14;7.10;;;1.00;;
37411;SDS011;23278;52.110;6.050;2022-08-04T07:18:42;3.90;;;0.82;;
37411;SDS011;23278;52.110;6.050;2022-08-04T07:21:08;2.75;;;0.90;;
37411;SDS011;23278;52.110;6.050;2022-08-04T07:23:43;4.05;;;0.82;;
37411;SDS011;23278;52.110;6.050;2022-08-04T07:26:10;7.90;;;0.85;;
37411;SDS011;23278;52.110;6.050;2022-08-04T07:28:36;1.55;;;0.50;;
37411;SDS011;23278;52.110;6.050;2022-08-04T07:31:03;3.28;;;0.80;;
37411;SDS011;23278;52.110;6.050;2022-08-04T07:33:30;3.08;;;0.65;;
37411;SDS011;23278;52.110;6.050;2022-08-04T07:35:56;2.85;;;0.65;;
37411;SDS011;23278;52.110;6.050;2022-08-04T07:38:22;4.22;;;1.13;;
37411;SDS011;23278;52.110;6.050;2022-08-04T07:40:49;4.38;;;1.25;;
37411;SDS011;23278;52.110;6.050;2022-08-04T07:43:15;3.53;;;0.88;;
37411;SDS011;23278;52.110;6.050;2022-08-04T07:45:41;2.85;;;1.42;;
37411;SDS011;23278;52.110;6.050;2022-08-04T07:48:08;4.18;;;1.33;;
37411;SDS011;23278;52.110;6.050;2022-08-04T07:50:36;7.30;;;1.40;;
37411;SDS011;23278;52.110;6.050;2022-08-04T07:53:05;7.15;;;1.42;;
37411;SDS011;23278;52.110;6.050;2022-08-04T07:55:31;4.38;;;1.20;;
37411;SDS011;23278;52.110;6.050;2022-08-04T07:57:57;6.60;;;1.35;;
37411;SDS011;23278;52.110;6.050;2022-08-04T08:00:23;3.95;;;1.35;;
37411;SDS011;23278;52.110;6.050;2022-08-04T08:02:49;4.25;;;1.77;;
37411;SDS011;23278;52.110;6.050;2022-08-04T08:05:17;4.63;;;1.23;;
37411;SDS011;23278;52.110;6.050;2022-08-04T08:07:44;3.80;;;0.90;;
37411;SDS011;23278;52.110;6.050;2022-08-04T08:10:11;7.10;;;0.93;;
37411;SDS011;23278;52.110;6.050;2022-08-04T08:12:38;2.63;;;0.70;;
37411;SDS011;23278;52.110;6.050;2022-08-04T08:15:06;2.70;;;0.98;;
37411;SDS011;23278;52.110;6.050;2022-08-04T08:17:34;3.45;;;0.65;;
37411;SDS011;23278;52.110;6.050;2022-08-04T08:20:00;3.53;;;1.23;;
37411;SDS011;23278;52.110;6.050;2022-08-04T08:22:27;2.88;;;0.68;;
37411;SDS011;23278;52.110;6.050;2022-08-04T08:24:55;4.38;;;0.60;;
37411;SDS011;23278;52.110;6.050;2022-08-04T08:27:22;3.40;;;0.70;;
37411;SDS011;23278;52.110;6.050;2022-08-04T08:29:48;8.27;;;1.13;;
37411;SDS011;23278;52.110;6.050;2022-08-04T08:32:14;1.73;;;0.75;;
37411;SDS011;23278;52.110;6.050;2022-08-04T08:34:41;4.55;;;1.00;;
37411;SDS011;23278;52.110;6.050;2022-08-04T08:37:18;8.57;;;0.98;;
37411;SDS011;23278;52.110;6.050;2022-08-04T08:52:08;3.63;;;1.27;;
37411;SDS011;23278;52.110;6.050;2022-08-04T08:54:53;2.72;;;0.57;;
37411;SDS011;23278;52.110;6.050;2022-08-04T08:58:00;3.65;;;0.88;;
37411;SDS011;23278;52.110;6.050;2022-08-04T09:00:41;4.10;;;0.80;;
37411;SDS011;23278;52.110;6.050;2022-08-04T09:06:11;5.18;;;1.10;;
37411;SDS011;23278;52.110;6.050;2022-08-04T09:11:55;3.15;;;1.02;;
37411;SDS011;23278;52.110;6.050;2022-08-04T09:14:44;1.48;;;0.77;;
37411;SDS011;23278;52.110;6.050;2022-08-04T09:17:42;2.60;;;0.85;;
37411;SDS011;23278;52.110;6.050;2022-08-04T09:22:57;2.72;;;0.90;;
37411;SDS011;23278;52.110;6.050;2022-08-04T09:25:33;4.85;;;0.90;;
37411;SDS011;23278;52.110;6.050;2022-08-04T09:28:24;3.80;;;1.13;;
37411;SDS011;23278;52.110;6.050;2022-08-04T09:30:55;4.50;;;1.13;;
37411;SDS011;23278;52.110;6.050;2022-08-04T09:36:09;3.42;;;0.90;;
37411;SDS011;23278;52.110;6.050;2022-08-04T09:44:42;2.95;;;0.73;;
37411;SDS011;23278;52.110;6.050;2022-08-04T09:47:32;3.58;;;1.25;;
37411;SDS011;23278;52.110;6.050;2022-08-04T09:58:13;5.30;;;1.17;;
37411;SDS011;23278;52.110;6.050;2022-08-04T10:01:03;4.93;;;1.20;;
37411;SDS011;23278;52.110;6.050;2022-08-04T10:03:40;3.42;;;0.93;;
37411;SDS011;23278;52.110;6.050;2022-08-04T10:14:52;6.82;;;1.00;;
37411;SDS011;23278;52.110;6.050;2022-08-04T10:20:26;2.38;;;0.75;;
37411;SDS011;23278;52.110;6.050;2022-08-04T10:29:06;5.63;;;0.82;;
37411;SDS011;23278;52.110;6.050;2022-08-04T10:31:41;3.50;;;0.77;;
37411;SDS011;23278;52.110;6.050;2022-08-04T10:34:28;3.92;;;0.70;;
37411;SDS011;23278;52.110;6.050;2022-08-04T10:40:30;9.65;;;1.25;;
37411;SDS011;23278;52.110;6.050;2022-08-04T10:42:58;3.03;;;1.00;;
37411;SDS011;23278;52.110;6.050;2022-08-04T10:45:32;4.30;;;0.70;;
37411;SDS011;23278;52.110;6.050;2022-08-04T10:51:00;2.83;;;1.15;;
37411;SDS011;23278;52.110;6.050;2022-08-04T10:53:51;3.35;;;0.47;;
37411;SDS011;23278;52.110;6.050;2022-08-04T10:58:56;3.78;;;0.82;;
37411;SDS011;23278;52.110;6.050;2022-08-04T11:01:31;4.55;;;1.15;;
37411;SDS011;23278;52.110;6.050;2022-08-04T11:04:00;2.92;;;0.50;;
37411;SDS011;23278;52.110;6.050;2022-08-04T11:06:32;3.92;;;1.15;;
37411;SDS011;23278;52.110;6.050;2022-08-04T11:09:00;4.97;;;0.60;;
37411;SDS011;23278;52.110;6.050;2022-08-04T11:11:35;5.00;;;1.30;;
37411;SDS011;23278;52.110;6.050;2022-08-04T11:21:59;1.88;;;0.57;;
37411;SDS011;23278;52.110;6.050;2022-08-04T11:24:34;3.28;;;0.70;;
37411;SDS011;23278;52.110;6.050;2022-08-04T11:27:15;4.13;;;0.55;;
37411;SDS011;23278;52.110;6.050;2022-08-04T11:29:54;3.03;;;0.57;;
37411;SDS011;23278;52.110;6.050;2022-08-04T11:32:41;3.08;;;0.70;;
37411;SDS011;23278;52.110;6.050;2022-08-04T11:35:12;2.20;;;0.55;;
37411;SDS011;23278;52.110;6.050;2022-08-04T11:37:45;2.83;;;0.60;;
37411;SDS011;23278;52.110;6.050;2022-08-04T11:40:21;1.15;;;0.40;;
37411;SDS011;23278;52.110;6.050;2022-08-04T11:42:55;2.15;;;0.40;;
37411;SDS011;23278;52.110;6.050;2022-08-04T11:45:33;1.98;;;0.45;;
37411;SDS011;23278;52.110;6.050;2022-08-04T11:50:44;1.60;;;0.40;;
37411;SDS011;23278;52.110;6.050;2022-08-04T11:53:15;1.17;;;0.40;;
37411;SDS011;23278;52.110;6.050;2022-08-04T11:55:45;2.80;;;0.50;;
37411;SDS011;23278;52.110;6.050;2022-08-04T11:58:17;1.85;;;0.57;;
37411;SDS011;23278;52.110;6.050;2022-08-04T12:03:54;1.95;;;0.50;;
37411;SDS011;23278;52.110;6.050;2022-08-04T12:09:01;3.20;;;0.52;;
37411;SDS011;23278;52.110;6.050;2022-08-04T12:14:40;2.17;;;0.50;;
37411;SDS011;23278;52.110;6.050;2022-08-04T12:17:32;1.45;;;0.45;;
37411;SDS011;23278;52.110;6.050;2022-08-04T12:20:04;2.05;;;0.50;;
37411;SDS011;23278;52.110;6.050;2022-08-04T12:22:36;4.30;;;0.65;;
37411;SDS011;23278;52.110;6.050;2022-08-04T12:25:08;3.70;;;0.50;;
37411;SDS011;23278;52.110;6.050;2022-08-04T12:27:42;1.00;;;0.40;;
37411;SDS011;23278;52.110;6.050;2022-08-04T12:30:13;0.85;;;0.40;;
37411;SDS011;23278;52.110;6.050;2022-08-04T12:32:47;3.17;;;0.47;;
37411;SDS011;23278;52.110;6.050;2022-08-04T12:35:35;2.58;;;0.70;;
37411;SDS011;23278;52.110;6.050;2022-08-04T12:38:13;6.70;;;1.95;;
37411;SDS011;23278;52.110;6.050;2022-08-04T12:40:48;3.20;;;1.02;;
37411;SDS011;23278;52.110;6.050;2022-08-04T12:43:21;3.35;;;0.70;;
37411;SDS011;23278;52.110;6.050;2022-08-04T12:46:03;7.13;;;1.35;;
37411;SDS011;23278;52.110;6.050;2022-08-04T12:48:32;3.15;;;0.75;;
37411;SDS011;23278;52.110;6.050;2022-08-04T12:51:01;2.45;;;0.45;;
37411;SDS011;23278;52.110;6.050;2022-08-04T12:53:34;0.75;;;0.50;;
37411;SDS011;23278;52.110;6.050;2022-08-04T12:56:04;1.60;;;0.50;;
37411;SDS011;23278;52.110;6.050;2022-08-04T12:58:32;3.78;;;0.50;;
37411;SDS011;23278;52.110;6.050;2022-08-04T13:01:07;1.63;;;0.47;;
37411;SDS011;23278;52.110;6.050;2022-08-04T13:06:26;2.67;;;0.50;;
37411;SDS011;23278;52.110;6.050;2022-08-04T13:08:54;1.25;;;0.43;;
37411;SDS011;23278;52.110;6.050;2022-08-04T13:11:27;1.85;;;0.70;;
37411;SDS011;23278;52.110;6.050;2022-08-04T13:13:58;1.20;;;0.50;;
37411;SDS011;23278;52.110;6.050;2022-08-04T13:16:28;1.10;;;0.60;;
37411;SDS011;23278;52.110;6.050;2022-08-04T13:18:55;1.88;;;0.60;;
37411;SDS011;23278;52.110;6.050;2022-08-04T13:21:22;1.30;;;0.50;;
37411;SDS011;23278;52.110;6.050;2022-08-04T13:23:51;2.42;;;0.65;;
37411;SDS011;23278;52.110;6.050;2022-08-04T13:26:18;0.90;;;0.30;;
37411;SDS011;23278;52.110;6.050;2022-08-04T13:28:46;1.25;;;0.47;;
37411;SDS011;23278;52.110;6.050;2022-08-04T13:31:15;1.25;;;0.50;;
37411;SDS011;23278;52.110;6.050;2022-08-04T13:33:45;1.10;;;0.30;;
37411;SDS011;23278;52.110;6.050;2022-08-04T13:36:14;3.80;;;0.50;;
37411;SDS011;23278;52.110;6.050;2022-08-04T13:38:50;4.95;;;0.55;;
37411;SDS011;23278;52.110;6.050;2022-08-04T13:41:19;2.83;;;0.40;;
37411;SDS011;23278;52.110;6.050;2022-08-04T13:43:49;3.30;;;0.45;;
37411;SDS011;23278;52.110;6.050;2022-08-04T13:46:21;1.55;;;0.40;;
37411;SDS011;23278;52.110;6.050;2022-08-04T13:48:50;1.02;;;0.30;;
37411;SDS011;23278;52.110;6.050;2022-08-04T13:51:17;1.08;;;0.47;;
37411;SDS011;23278;52.110;6.050;2022-08-04T13:53:53;1.57;;;0.60;;
37411;SDS011;23278;52.110;6.050;2022-08-04T13:56:21;1.75;;;0.60;;
37411;SDS011;23278;52.110;6.050;2022-08-04T13:58:54;2.22;;;0.70;;
37411;SDS011;23278;52.110;6.050;2022-08-04T14:01:22;0.85;;;0.40;;
37411;SDS011;23278;52.110;6.050;2022-08-04T14:03:55;2.90;;;0.57;;
37411;SDS011;23278;52.110;6.050;2022-08-04T14:06:33;2.88;;;0.50;;
37411;SDS011;23278;52.110;6.050;2022-08-04T14:09:14;2.40;;;0.45;;
37411;SDS011;23278;52.110;6.050;2022-08-04T14:11:46;2.75;;;0.50;;
37411;SDS011;23278;52.110;6.050;2022-08-04T14:16:56;1.55;;;0.40;;
37411;SDS011;23278;52.110;6.050;2022-08-04T14:19:25;1.15;;;0.47;;
37411;SDS011;23278;52.110;6.050;2022-08-04T14:21:52;1.38;;;0.60;;
37411;SDS011;23278;52.110;6.050;2022-08-04T14:24:21;1.40;;;0.50;;
37411;SDS011;23278;52.110;6.050;2022-08-04T14:26:48;1.25;;;0.50;;
37411;SDS011;23278;52.110;6.050;2022-08-04T14:29:15;3.53;;;0.50;;
37411;SDS011;23278;52.110;6.050;2022-08-04T14:31:42;1.23;;;0.50;;
37411;SDS011;23278;52.110;6.050;2022-08-04T14:34:23;3.03;;;0.50;;
37411;SDS011;23278;52.110;6.050;2022-08-04T14:36:50;1.17;;;0.40;;
37411;SDS011;23278;52.110;6.050;2022-08-04T14:39:17;0.88;;;0.32;;
37411;SDS011;23278;52.110;6.050;2022-08-04T14:41:59;2.15;;;0.60;;
37411;SDS011;23278;52.110;6.050;2022-08-04T14:44:25;1.08;;;0.50;;
37411;SDS011;23278;52.110;6.050;2022-08-04T14:46:52;1.80;;;0.40;;
37411;SDS011;23278;52.110;6.050;2022-08-04T14:49:20;1.52;;;0.40;;
37411;SDS011;23278;52.110;6.050;2022-08-04T14:54:25;1.10;;;0.47;;
37411;SDS011;23278;52.110;6.050;2022-08-04T14:56:52;1.38;;;0.30;;
37411;SDS011;23278;52.110;6.050;2022-08-04T14:59:20;1.95;;;0.30;;
37411;SDS011;23278;52.110;6.050;2022-08-04T15:01:46;2.10;;;0.45;;
37411;SDS011;23278;52.110;6.050;2022-08-04T15:04:14;3.30;;;0.80;;
37411;SDS011;23278;52.110;6.050;2022-08-04T15:06:40;1.48;;;0.35;;
37411;SDS011;23278;52.110;6.050;2022-08-04T15:09:07;1.05;;;0.30;;
37411;SDS011;23278;52.110;6.050;2022-08-04T15:11:34;1.50;;;0.50;;
37411;SDS011;23278;52.110;6.050;2022-08-04T15:14:01;1.05;;;0.45;;
37411;SDS011;23278;52.110;6.050;2022-08-04T15:16:29;1.00;;;0.35;;
37411;SDS011;23278;52.110;6.050;2022-08-04T15:18:57;0.60;;;0.40;;
37411;SDS011;23278;52.110;6.050;2022-08-04T15:21:23;1.00;;;0.30;;
37411;SDS011;23278;52.110;6.050;2022-08-04T15:29:13;0.85;;;0.35;;
37411;SDS011;23278;52.110;6.050;2022-08-04T15:31:41;0.77;;;0.40;;
37411;SDS011;23278;52.110;6.050;2022-08-04T15:34:11;2.50;;;0.40;;
37411;SDS011;23278;52.110;6.050;2022-08-04T15:39:27;1.77;;;0.30;;
37411;SDS011;23278;52.110;6.050;2022-08-04T15:44:55;0.60;;;0.30;;
37411;SDS011;23278;52.110;6.050;2022-08-04T15:47:23;4.10;;;0.35;;
37411;SDS011;23278;52.110;6.050;2022-08-04T15:50:10;1.13;;;0.40;;
37411;SDS011;23278;52.110;6.050;2022-08-04T15:58:00;2.20;;;0.90;;
37411;SDS011;23278;52.110;6.050;2022-08-04T16:00:27;1.73;;;0.35;;
37411;SDS011;23278;52.110;6.050;2022-08-04T16:05:58;0.77;;;0.30;;
37411;SDS011;23278;52.110;6.050;2022-08-04T16:19:04;1.90;;;0.50;;
37411;SDS011;23278;52.110;6.050;2022-08-04T16:21:31;1.13;;;0.47;;
37411;SDS011;23278;52.110;6.050;2022-08-04T16:24:05;2.00;;;0.60;;
37411;SDS011;23278;52.110;6.050;2022-08-04T16:32:06;1.42;;;0.40;;
37411;SDS011;23278;52.110;6.050;2022-08-04T16:37:34;3.40;;;0.87;;
37411;SDS011;23278;52.110;6.050;2022-08-04T16:43:01;3.92;;;1.08;;
37411;SDS011;23278;52.110;6.050;2022-08-04T16:45:43;3.45;;;1.45;;
37411;SDS011;23278;52.110;6.050;2022-08-04T16:48:12;3.92;;;2.15;;
37411;SDS011;23278;52.110;6.050;2022-08-04T16:50:47;4.97;;;2.45;;
37411;SDS011;23278;52.110;6.050;2022-08-04T16:53:17;8.10;;;1.73;;
37411;SDS011;23278;52.110;6.050;2022-08-04T16:55:49;2.60;;;1.35;;
37411;SDS011;23278;52.110;6.050;2022-08-04T17:00:48;1.75;;;0.60;;
37411;SDS011;23278;52.110;6.050;2022-08-04T17:03:14;3.45;;;0.55;;
37411;SDS011;23278;52.110;6.050;2022-08-04T17:05:40;2.65;;;0.73;;
37411;SDS011;23278;52.110;6.050;2022-08-04T17:08:08;0.90;;;0.40;;
37411;SDS011;23278;52.110;6.050;2022-08-04T17:10:38;1.02;;;0.40;;
37411;SDS011;23278;52.110;6.050;2022-08-04T17:16:00;1.25;;;0.40;;
37411;SDS011;23278;52.110;6.050;2022-08-04T17:18:30;3.22;;;0.52;;
37411;SDS011;23278;52.110;6.050;2022-08-04T17:21:01;1.33;;;0.40;;
37411;SDS011;23278;52.110;6.050;2022-08-04T17:23:30;0.65;;;0.30;;
37411;SDS011;23278;52.110;6.050;2022-08-04T17:26:08;1.98;;;0.47;;
37411;SDS011;23278;52.110;6.050;2022-08-04T17:28:39;1.15;;;0.30;;
37411;SDS011;23278;52.110;6.050;2022-08-04T17:31:09;1.45;;;0.60;;
37411;SDS011;23278;52.110;6.050;2022-08-04T17:33:39;1.58;;;0.50;;
37411;SDS011;23278;52.110;6.050;2022-08-04T17:36:15;2.75;;;0.30;;
37411;SDS011;23278;52.110;6.050;2022-08-04T17:38:43;2.75;;;0.52;;
37411;SDS011;23278;52.110;6.050;2022-08-04T17:41:15;1.42;;;0.40;;
37411;SDS011;23278;52.110;6.050;2022-08-04T17:43:45;1.83;;;1.00;;
37411;SDS011;23278;52.110;6.050;2022-08-04T17:48:42;1.60;;;0.40;;
37411;SDS011;23278;52.110;6.050;2022-08-04T17:51:12;1.00;;;0.40;;
37411;SDS011;23278;52.110;6.050;2022-08-04T17:53:38;0.90;;;0.52;;
37411;SDS011;23278;52.110;6.050;2022-08-04T17:56:04;1.70;;;0.55;;
37411;SDS011;23278;52.110;6.050;2022-08-04T17:58:30;3.00;;;0.60;;
37411;SDS011;23278;52.110;6.050;2022-08-04T18:01:00;2.28;;;0.50;;
37411;SDS011;23278;52.110;6.050;2022-08-04T18:03:26;8.27;;;0.60;;
37411;SDS011;23278;52.110;6.050;2022-08-04T18:05:53;1.75;;;0.50;;
37411;SDS011;23278;52.110;6.050;2022-08-04T18:08:25;1.08;;;0.50;;
37411;SDS011;23278;52.110;6.050;2022-08-04T18:10:51;1.83;;;0.50;;
37411;SDS011;23278;52.110;6.050;2022-08-04T18:13:19;1.42;;;0.40;;
37411;SDS011;23278;52.110;6.050;2022-08-04T18:15:45;1.95;;;0.52;;
37411;SDS011;23278;52.110;6.050;2022-08-04T18:18:18;2.45;;;0.50;;
37411;SDS011;23278;52.110;6.050;2022-08-04T18:20:46;1.05;;;0.30;;
37411;SDS011;23278;52.110;6.050;2022-08-04T18:23:13;0.82;;;0.40;;
37411;SDS011;23278;52.110;6.050;2022-08-04T18:25:43;1.77;;;0.40;;
37411;SDS011;23278;52.110;6.050;2022-08-04T18:28:13;4.07;;;0.40;;
37411;SDS011;23278;52.110;6.050;2022-08-04T18:30:39;2.25;;;0.70;;
37411;SDS011;23278;52.110;6.050;2022-08-04T18:33:05;1.27;;;0.68;;
37411;SDS011;23278;52.110;6.050;2022-08-04T18:35:32;2.63;;;0.45;;
37411;SDS011;23278;52.110;6.050;2022-08-04T18:38:00;1.30;;;0.40;;
37411;SDS011;23278;52.110;6.050;2022-08-04T18:40:26;2.47;;;0.32;;
37411;SDS011;23278;52.110;6.050;2022-08-04T18:42:52;3.28;;;0.50;;
37411;SDS011;23278;52.110;6.050;2022-08-04T18:45:18;1.45;;;0.40;;
37411;SDS011;23278;52.110;6.050;2022-08-04T18:47:44;1.33;;;0.50;;
37411;SDS011;23278;52.110;6.050;2022-08-04T18:50:10;1.98;;;0.75;;
37411;SDS011;23278;52.110;6.050;2022-08-04T18:52:36;1.73;;;0.50;;
37411;SDS011;23278;52.110;6.050;2022-08-04T18:55:03;1.67;;;0.55;;
37411;SDS011;23278;52.110;6.050;2022-08-04T18:57:29;1.63;;;0.60;;
37411;SDS011;23278;52.110;6.050;2022-08-04T18:59:55;2.28;;;0.95;;
37411;SDS011;23278;52.110;6.050;2022-08-04T19:02:21;3.17;;;0.50;;
37411;SDS011;23278;52.110;6.050;2022-08-04T19:04:48;2.42;;;0.40;;
37411;SDS011;23278;52.110;6.050;2022-08-04T19:07:14;5.35;;;0.82;;
37411;SDS011;23278;52.110;6.050;2022-08-04T19:09:41;2.15;;;0.60;;
37411;SDS011;23278;52.110;6.050;2022-08-04T19:12:07;1.02;;;0.50;;
37411;SDS011;23278;52.110;6.050;2022-08-04T19:14:33;2.15;;;0.43;;
37411;SDS011;23278;52.110;6.050;2022-08-04T19:17:00;2.75;;;0.63;;
37411;SDS011;23278;52.110;6.050;2022-08-04T19:19:26;4.03;;;0.60;;
37411;SDS011;23278;52.110;6.050;2022-08-04T19:21:52;0.70;;;0.30;;
37411;SDS011;23278;52.110;6.050;2022-08-04T19:24:18;1.90;;;0.40;;
37411;SDS011;23278;52.110;6.050;2022-08-04T19:26:44;0.98;;;0.50;;
37411;SDS011;23278;52.110;6.050;2022-08-04T19:29:10;1.63;;;0.40;;
37411;SDS011;23278;52.110;6.050;2022-08-04T19:31:35;4.72;;;0.40;;
37411;SDS011;23278;52.110;6.050;2022-08-04T19:34:02;3.08;;;0.70;;
37411;SDS011;23278;52.110;6.050;2022-08-04T19:36:28;1.35;;;0.40;;
37411;SDS011;23278;52.110;6.050;2022-08-04T19:38:59;0.60;;;0.30;;
37411;SDS011;23278;52.110;6.050;2022-08-04T19:41:28;1.60;;;0.52;;
37411;SDS011;23278;52.110;6.050;2022-08-04T19:43:56;2.15;;;0.77;;
37411;SDS011;23278;52.110;6.050;2022-08-04T19:46:22;2.58;;;0.50;;
37411;SDS011;23278;52.110;6.050;2022-08-04T19:48:49;1.45;;;0.43;;